createdAt,value
2023-03-16T00:00:53.316Z,1.00
2023-03-16T00:03:22.231Z,1.27
2023-03-16T00:05:52.048Z,1.52
2023-03-16T00:08:20.694Z,1.00
2023-03-16T00:10:49.674Z,1.80
2023-03-16T00:13:24.108Z,1.40
2023-03-16T00:15:53.999Z,2.47
2023-03-16T00:18:23.478Z,1.70
2023-03-16T00:20:53.158Z,3.45
2023-03-16T00:23:27.610Z,1.75
2023-03-16T00:25:57.011Z,1.88
2023-03-16T00:28:28.396Z,2.10
2023-03-16T00:30:59.183Z,2.10
2023-03-16T00:33:28.372Z,2.25
2023-03-16T00:36:04.225Z,2.03
2023-03-16T00:38:34.965Z,2.50
2023-03-16T00:41:04.357Z,2.42
2023-03-16T00:43:41.393Z,2.85
2023-03-16T00:46:11.707Z,2.30
2023-03-16T00:48:42.744Z,2.65
2023-03-16T00:51:14.954Z,2.22
2023-03-16T00:53:46.001Z,2.15
2023-03-16T00:58:46.096Z,2.00
2023-03-16T01:01:16.538Z,2.63
2023-03-16T01:03:45.200Z,2.95
2023-03-16T01:06:15.452Z,2.65
2023-03-16T01:08:44.728Z,3.00
2023-03-16T01:11:16.510Z,3.83
2023-03-16T01:13:48.462Z,3.15
2023-03-16T01:18:46.825Z,2.25
2023-03-16T01:21:15.441Z,2.72
2023-03-16T01:23:44.467Z,3.00
2023-03-16T01:26:15.385Z,3.05
2023-03-16T01:28:44.616Z,2.95
2023-03-16T01:31:16.250Z,3.58
2023-03-16T01:33:48.048Z,3.42
2023-03-16T01:36:22.072Z,3.33
2023-03-16T01:38:58.028Z,2.83
2023-03-16T01:43:58.689Z,3.05
2023-03-16T01:46:30.946Z,2.30
2023-03-16T01:49:08.771Z,2.60
2023-03-16T01:51:46.816Z,3.03
2023-03-16T01:54:24.943Z,3.13
2023-03-16T01:56:59.650Z,3.78
2023-03-16T01:59:32.488Z,2.50
2023-03-16T02:02:04.130Z,3.60
2023-03-16T02:04:43.622Z,3.75
2023-03-16T02:07:17.313Z,3.05
2023-03-16T02:09:49.883Z,2.88
2023-03-16T02:12:20.169Z,2.83
2023-03-16T02:14:53.659Z,2.85
2023-03-16T02:17:27.848Z,2.80
2023-03-16T02:20:18.092Z,2.30
2023-03-16T02:22:50.309Z,2.50
2023-03-16T02:25:20.408Z,2.47
2023-03-16T02:27:59.532Z,2.57
2023-03-16T02:30:30.207Z,2.65
2023-03-16T02:33:05.460Z,2.63
2023-03-16T02:35:34.721Z,2.72
2023-03-16T02:38:04.833Z,3.08
2023-03-16T02:40:39.471Z,2.53
2023-03-16T02:43:16.976Z,2.20
2023-03-16T02:45:56.944Z,3.03
2023-03-16T02:48:33.562Z,2.47
2023-03-16T02:51:02.473Z,3.22
2023-03-16T02:53:31.234Z,3.00
2023-03-16T02:56:03.109Z,2.28
2023-03-16T02:58:35.119Z,3.30
2023-03-16T03:01:08.448Z,2.13
2023-03-16T03:03:37.610Z,2.20
2023-03-16T03:06:06.938Z,2.08
2023-03-16T03:08:38.233Z,2.58
2023-03-16T03:11:07.160Z,2.80
2023-03-16T03:13:39.361Z,2.03
2023-03-16T03:16:14.650Z,2.53
2023-03-16T03:18:43.334Z,1.70
2023-03-16T03:21:11.926Z,2.35
2023-03-16T03:23:42.004Z,2.38
2023-03-16T03:26:10.556Z,2.20
2023-03-16T03:28:39.903Z,2.65
2023-03-16T03:31:08.522Z,2.78
2023-03-16T03:33:39.381Z,2.28
2023-03-16T03:36:08.561Z,2.30
2023-03-16T03:38:39.119Z,2.42
2023-03-16T03:41:09.785Z,2.08
2023-03-16T03:43:41.202Z,2.53
2023-03-16T03:46:15.354Z,2.72
2023-03-16T03:48:45.775Z,2.65
2023-03-16T03:51:14.391Z,2.38
2023-03-16T03:54:03.280Z,2.15
2023-03-16T03:56:37.934Z,4.30
2023-03-16T03:59:11.079Z,3.72
2023-03-16T04:02:00.364Z,3.65
2023-03-16T04:04:41.359Z,3.67
2023-03-16T04:07:13.096Z,3.72
2023-03-16T04:09:45.758Z,4.97
2023-03-16T04:12:40.249Z,5.00
2023-03-16T04:15:13.662Z,5.28
2023-03-16T04:17:59.808Z,5.03
2023-03-16T04:20:32.364Z,4.88
2023-03-16T04:23:01.419Z,5.25
2023-03-16T04:25:32.601Z,4.68
2023-03-16T04:28:02.407Z,5.55
2023-03-16T04:30:35.396Z,4.70
2023-03-16T04:33:15.227Z,5.80
2023-03-16T04:35:46.964Z,5.90
2023-03-16T04:38:17.618Z,6.35
2023-03-16T04:40:55.242Z,5.25
2023-03-16T04:43:27.205Z,5.47
2023-03-16T04:46:00.263Z,5.20
2023-03-16T04:48:32.521Z,5.32
2023-03-16T04:51:06.062Z,6.18
2023-03-16T04:53:38.702Z,5.72
2023-03-16T04:56:19.901Z,6.05
2023-03-16T04:58:57.105Z,5.80
2023-03-16T05:01:29.122Z,6.70
2023-03-16T05:04:00.591Z,6.82
2023-03-16T05:06:32.584Z,5.72
2023-03-16T05:09:05.727Z,5.63
2023-03-16T05:11:37.724Z,5.95
2023-03-16T05:14:09.867Z,6.30
2023-03-16T05:16:52.597Z,5.60
2023-03-16T05:19:22.380Z,5.68
2023-03-16T05:21:53.029Z,6.45
2023-03-16T05:24:22.097Z,6.45
2023-03-16T05:26:51.306Z,6.43
2023-03-16T05:29:22.880Z,7.03
2023-03-16T05:31:52.464Z,6.60
2023-03-16T05:34:24.839Z,7.07
2023-03-16T05:36:55.893Z,6.40
2023-03-16T05:39:25.512Z,7.10
2023-03-16T05:41:55.344Z,6.45
2023-03-16T05:44:38.534Z,6.50
2023-03-16T05:47:43.916Z,6.22
2023-03-16T05:50:14.119Z,6.18
2023-03-16T05:52:47.101Z,7.32
2023-03-16T05:55:24.313Z,7.15
2023-03-16T05:57:58.234Z,6.95
2023-03-16T06:00:28.028Z,6.95
2023-03-16T06:03:08.524Z,6.40
2023-03-16T06:05:40.179Z,6.32
2023-03-16T06:08:10.643Z,6.38
2023-03-16T06:10:42.646Z,6.18
2023-03-16T06:13:11.731Z,6.95
2023-03-16T06:15:41.545Z,6.13
2023-03-16T06:18:10.290Z,6.85
2023-03-16T06:20:39.240Z,7.00
2023-03-16T06:23:10.459Z,7.03
2023-03-16T06:25:40.743Z,6.63
2023-03-16T06:28:11.526Z,6.70
2023-03-16T06:30:42.261Z,7.35
2023-03-16T06:33:11.292Z,6.60
2023-03-16T06:35:40.232Z,6.30
2023-03-16T06:38:17.734Z,7.28
2023-03-16T06:41:04.913Z,5.97
2023-03-16T06:43:36.329Z,5.88
2023-03-16T06:46:05.828Z,5.78
2023-03-16T06:48:34.619Z,6.85
2023-03-16T06:51:03.464Z,5.25
2023-03-16T06:53:34.368Z,5.80
2023-03-16T06:56:03.215Z,7.25
2023-03-16T06:58:34.873Z,6.32
2023-03-16T07:01:04.252Z,6.07
2023-03-16T07:03:33.812Z,5.05
2023-03-16T07:06:12.573Z,5.68
2023-03-16T07:08:48.970Z,5.00
2023-03-16T07:11:21.084Z,6.90
2023-03-16T07:13:50.094Z,6.32
2023-03-16T07:18:50.511Z,5.60
2023-03-16T07:21:22.259Z,6.18
2023-03-16T07:23:53.413Z,12.75
2023-03-16T07:26:26.550Z,6.10
2023-03-16T07:28:59.754Z,7.13
2023-03-16T07:31:29.101Z,7.38
2023-03-16T07:34:00.253Z,8.38
2023-03-16T07:36:40.777Z,6.82
2023-03-16T07:39:14.672Z,7.43
2023-03-16T07:41:45.005Z,6.70
2023-03-16T07:44:19.298Z,7.40
2023-03-16T07:46:51.808Z,6.63
2023-03-16T07:49:23.915Z,7.07
2023-03-16T07:51:55.075Z,8.38
2023-03-16T07:54:31.460Z,8.55
2023-03-16T07:57:00.136Z,7.10
2023-03-16T07:59:40.082Z,7.15
2023-03-16T08:02:14.156Z,7.10
2023-03-16T08:04:44.107Z,6.95
2023-03-16T08:07:15.117Z,7.10
2023-03-16T08:10:17.582Z,6.32
2023-03-16T08:13:06.464Z,6.60
2023-03-16T08:15:37.432Z,6.40
2023-03-16T08:18:12.754Z,6.50
2023-03-16T08:20:42.048Z,7.95
2023-03-16T08:23:12.197Z,6.95
2023-03-16T08:25:44.836Z,6.75
2023-03-16T08:28:17.247Z,8.60
2023-03-16T08:30:48.358Z,7.60
2023-03-16T08:33:36.271Z,8.27
2023-03-16T08:36:07.859Z,7.43
2023-03-16T08:41:12.699Z,7.45
2023-03-16T08:43:43.047Z,7.75
2023-03-16T08:46:13.669Z,7.15
2023-03-16T08:48:50.320Z,7.38
2023-03-16T08:51:19.685Z,7.65
2023-03-16T08:53:48.199Z,8.07
2023-03-16T08:56:18.314Z,8.52
2023-03-16T08:58:46.959Z,7.30
2023-03-16T09:01:17.635Z,7.38
2023-03-16T09:03:47.109Z,7.88
2023-03-16T09:06:17.263Z,7.72
2023-03-16T09:08:47.931Z,7.20
2023-03-16T09:11:20.117Z,6.28
2023-03-16T09:13:51.243Z,5.80
2023-03-16T09:16:25.892Z,6.68
2023-03-16T09:18:56.342Z,5.97
2023-03-16T09:21:26.164Z,5.60
2023-03-16T09:23:54.995Z,5.97
2023-03-16T09:26:25.772Z,5.47
2023-03-16T09:28:54.573Z,5.68
2023-03-16T09:31:24.148Z,6.47
2023-03-16T09:33:52.740Z,6.18
2023-03-16T09:36:21.326Z,5.97
2023-03-16T09:38:50.660Z,6.07
2023-03-16T09:41:34.578Z,5.65
2023-03-16T09:44:12.102Z,6.93
2023-03-16T09:46:44.839Z,5.18
2023-03-16T09:49:17.777Z,5.40
2023-03-16T09:51:52.660Z,4.88
2023-03-16T09:54:28.679Z,4.80
2023-03-16T09:57:01.674Z,4.20
2023-03-16T09:59:30.293Z,5.18
2023-03-16T10:02:13.310Z,4.43
2023-03-16T10:04:48.210Z,4.95
2023-03-16T10:07:27.939Z,4.55
2023-03-16T10:10:00.591Z,4.65
2023-03-16T10:12:38.336Z,4.75
2023-03-16T10:15:11.979Z,4.43
2023-03-16T10:17:44.856Z,4.25
2023-03-16T10:20:19.078Z,5.35
2023-03-16T10:22:51.096Z,4.63
2023-03-16T10:25:24.803Z,4.65
2023-03-16T10:27:57.583Z,4.20
2023-03-16T10:30:29.314Z,4.65
2023-03-16T10:33:02.064Z,4.70
2023-03-16T10:35:42.971Z,4.60
2023-03-16T10:38:28.881Z,3.30
2023-03-16T10:40:59.060Z,3.30
2023-03-16T10:43:30.638Z,3.40
2023-03-16T10:46:03.520Z,3.90
2023-03-16T10:48:35.168Z,3.00
2023-03-16T10:51:09.377Z,3.58
2023-03-16T10:53:42.772Z,3.55
2023-03-16T10:56:14.078Z,3.70
2023-03-16T10:58:46.834Z,3.88
2023-03-16T11:01:20.842Z,3.90
2023-03-16T11:03:53.433Z,3.38
2023-03-16T11:06:24.944Z,3.45
2023-03-16T11:08:55.288Z,3.28
2023-03-16T11:11:28.627Z,3.70
2023-03-16T11:14:00.823Z,3.35
2023-03-16T11:16:37.210Z,3.97
2023-03-16T11:19:19.152Z,3.05
2023-03-16T11:21:55.175Z,3.33
2023-03-16T11:24:29.070Z,3.40
2023-03-16T11:27:00.370Z,4.15
2023-03-16T11:29:42.868Z,3.60
2023-03-16T11:32:16.033Z,3.42
2023-03-16T11:34:46.950Z,3.20
2023-03-16T11:37:26.520Z,3.83
2023-03-16T11:40:09.529Z,3.42
2023-03-16T11:42:44.213Z,2.83
2023-03-16T11:45:24.370Z,3.30
2023-03-16T11:48:10.177Z,3.00
2023-03-16T11:50:49.946Z,2.88
2023-03-16T11:53:32.142Z,2.65
2023-03-16T11:56:12.994Z,3.03
2023-03-16T11:58:54.192Z,2.97
2023-03-16T12:01:31.615Z,2.63
2023-03-16T12:04:20.914Z,2.97
2023-03-16T12:07:09.408Z,2.60
2023-03-16T12:10:01.243Z,2.67
2023-03-16T12:12:50.579Z,2.67
2023-03-16T12:15:30.030Z,2.95
2023-03-16T12:18:06.465Z,2.75
2023-03-16T12:20:42.072Z,2.72
2023-03-16T12:23:16.227Z,2.72
2023-03-16T12:25:49.364Z,2.88
2023-03-16T12:28:23.930Z,2.97
2023-03-16T12:31:02.400Z,2.42
2023-03-16T12:33:47.967Z,2.55
2023-03-16T12:36:38.265Z,2.83
2023-03-16T12:39:09.645Z,2.13
2023-03-16T12:41:49.192Z,2.03
2023-03-16T12:44:23.826Z,2.33
2023-03-16T12:46:59.611Z,2.00
2023-03-16T12:49:34.737Z,2.83
2023-03-16T12:52:06.338Z,2.78
2023-03-16T12:54:35.278Z,2.30
2023-03-16T12:57:06.863Z,2.20
2023-03-16T12:59:41.977Z,2.05
2023-03-16T13:02:17.832Z,1.88
2023-03-16T13:04:51.862Z,2.50
2023-03-16T13:07:24.055Z,1.88
2023-03-16T13:09:56.289Z,2.35
2023-03-16T13:12:28.227Z,2.13
2023-03-16T13:14:57.332Z,2.10
2023-03-16T13:17:29.461Z,2.45
2023-03-16T13:20:10.359Z,1.92
2023-03-16T13:22:46.812Z,2.13
2023-03-16T13:25:22.750Z,2.10
2023-03-16T13:27:55.659Z,1.92
2023-03-16T13:30:28.931Z,1.50
2023-03-16T13:33:06.640Z,2.13
2023-03-16T13:35:41.343Z,1.90
2023-03-16T13:38:16.932Z,2.28
2023-03-16T13:40:49.597Z,1.10
2023-03-16T13:43:20.011Z,1.40
2023-03-16T13:45:48.788Z,1.83
2023-03-16T13:48:19.175Z,1.52
2023-03-16T13:50:53.414Z,1.70
2023-03-16T13:53:25.252Z,1.45
2023-03-16T13:55:55.975Z,1.70
2023-03-16T13:58:27.752Z,1.88
2023-03-16T14:01:01.926Z,1.95
2023-03-16T14:03:34.319Z,1.30
2023-03-16T14:06:04.890Z,2.10
2023-03-16T14:08:34.215Z,2.08
2023-03-16T14:11:04.176Z,1.77
2023-03-16T14:13:36.432Z,2.13
2023-03-16T14:16:13.125Z,1.48
2023-03-16T14:18:43.550Z,1.50
2023-03-16T14:21:17.953Z,2.42
2023-03-16T14:23:48.172Z,1.13
2023-03-16T14:26:19.962Z,1.58
2023-03-16T14:29:06.100Z,1.25
2023-03-16T14:31:36.382Z,1.20
2023-03-16T14:34:09.534Z,1.10
2023-03-16T14:36:40.550Z,1.90
2023-03-16T14:39:13.758Z,1.45
2023-03-16T14:41:42.624Z,1.02
2023-03-16T14:44:21.965Z,1.35
2023-03-16T14:46:51.212Z,1.40
2023-03-16T14:49:24.446Z,1.30
2023-03-16T14:51:56.964Z,1.75
2023-03-16T14:54:26.221Z,1.25
2023-03-16T14:56:56.691Z,1.90
2023-03-16T14:59:25.243Z,0.95
2023-03-16T15:01:55.419Z,1.70
2023-03-16T15:04:29.301Z,1.40
2023-03-16T15:06:59.585Z,1.50
2023-03-16T15:09:37.843Z,1.63
2023-03-16T15:12:15.567Z,1.60
2023-03-16T15:15:01.342Z,2.00
2023-03-16T15:17:29.888Z,1.83
2023-03-16T15:19:58.430Z,1.95
2023-03-16T15:22:31.051Z,1.95
2023-03-16T15:25:00.453Z,1.65
2023-03-16T15:27:34.534Z,1.77
2023-03-16T15:30:03.332Z,1.35
2023-03-16T15:32:31.822Z,1.33
2023-03-16T15:35:00.429Z,1.27
2023-03-16T15:37:32.924Z,1.52
2023-03-16T15:40:01.612Z,1.40
2023-03-16T15:42:30.066Z,1.52
2023-03-16T15:44:58.533Z,1.50
2023-03-16T15:47:27.067Z,1.70
2023-03-16T15:49:56.065Z,1.40
2023-03-16T15:52:32.846Z,1.05
2023-03-16T15:55:07.844Z,1.27
2023-03-16T15:57:37.302Z,1.52
2023-03-16T16:00:07.439Z,1.70
2023-03-16T16:02:36.408Z,2.05
2023-03-16T16:05:04.991Z,0.93
2023-03-16T16:07:35.120Z,0.77
2023-03-16T16:10:03.879Z,1.15
2023-03-16T16:12:33.723Z,0.52
2023-03-16T16:15:02.500Z,1.15
2023-03-16T16:17:48.046Z,0.60
2023-03-16T16:20:21.946Z,0.55
2023-03-16T16:22:53.009Z,0.50
2023-03-16T16:27:52.422Z,0.63
2023-03-16T16:30:24.000Z,0.55
2023-03-16T16:32:52.667Z,0.82
2023-03-16T16:35:23.628Z,0.50
2023-03-16T16:37:54.162Z,0.40
2023-03-16T16:40:25.988Z,0.68
2023-03-16T16:42:55.840Z,0.40
2023-03-16T16:45:26.529Z,0.38
2023-03-16T16:47:55.940Z,0.57
2023-03-16T16:50:26.385Z,0.52
2023-03-16T16:52:57.665Z,0.50
2023-03-16T16:55:26.717Z,1.75
2023-03-16T16:57:56.357Z,1.73
2023-03-16T17:00:26.852Z,0.95
2023-03-16T17:02:58.790Z,1.30
2023-03-16T17:05:30.416Z,1.58
2023-03-16T17:08:04.297Z,1.63
2023-03-16T17:10:33.450Z,1.00
2023-03-16T17:13:02.136Z,1.65
2023-03-16T17:15:33.041Z,1.08
2023-03-16T17:18:05.251Z,1.90
2023-03-16T17:20:34.597Z,0.70
2023-03-16T17:23:04.636Z,1.10
2023-03-16T17:25:34.439Z,0.95
2023-03-16T17:28:03.789Z,0.95
2023-03-16T17:30:33.362Z,0.95
2023-03-16T17:33:07.417Z,0.60
2023-03-16T17:35:36.111Z,0.38
2023-03-16T17:38:13.373Z,0.80
2023-03-16T17:40:42.155Z,0.88
2023-03-16T17:43:15.223Z,0.65
2023-03-16T17:45:45.356Z,0.95
2023-03-16T17:48:16.717Z,0.95
2023-03-16T17:50:47.078Z,1.48
2023-03-16T17:53:18.870Z,1.00
2023-03-16T17:55:48.626Z,0.43
2023-03-16T17:58:29.772Z,0.55
2023-03-16T18:03:30.513Z,0.50
2023-03-16T18:05:59.582Z,1.00
2023-03-16T18:08:33.508Z,0.68
2023-03-16T18:11:04.993Z,0.60
2023-03-16T18:13:35.333Z,0.50
2023-03-16T18:16:05.222Z,0.63
2023-03-16T18:18:36.868Z,0.47
2023-03-16T18:21:06.339Z,0.60
2023-03-16T18:23:37.410Z,0.55
2023-03-16T18:28:36.364Z,0.98
2023-03-16T18:31:06.357Z,0.85
2023-03-16T18:33:36.992Z,0.60
2023-03-16T18:36:08.083Z,0.88
2023-03-16T18:43:44.825Z,0.98
2023-03-16T18:46:24.086Z,0.65
2023-03-16T18:48:53.832Z,0.40
2023-03-16T18:51:23.143Z,0.70
2023-03-16T18:53:54.369Z,0.98
2023-03-16T18:56:24.983Z,0.70
2023-03-16T18:58:54.370Z,0.75
2023-03-16T19:01:26.118Z,0.73
2023-03-16T19:03:55.439Z,1.27
2023-03-16T19:06:27.519Z,1.17
2023-03-16T19:09:02.581Z,0.60
2023-03-16T19:11:31.619Z,0.90
2023-03-16T19:13:59.957Z,1.30
2023-03-16T19:16:28.439Z,1.33
2023-03-16T19:18:57.067Z,1.13
2023-03-16T19:21:26.165Z,1.27
2023-03-16T19:24:00.645Z,1.20
2023-03-16T19:26:29.715Z,1.35
2023-03-16T19:28:58.366Z,1.50
2023-03-16T19:31:29.418Z,1.58
2023-03-16T19:33:58.717Z,1.58
2023-03-16T19:36:30.545Z,1.25
2023-03-16T19:39:01.359Z,0.90
2023-03-16T19:41:33.341Z,1.23
2023-03-16T19:44:08.606Z,0.98
2023-03-16T19:46:37.217Z,1.40
2023-03-16T19:49:10.145Z,0.70
2023-03-16T19:51:38.582Z,0.80
2023-03-16T19:54:08.642Z,0.80
2023-03-16T19:56:37.590Z,0.87
2023-03-16T19:59:06.272Z,1.85
2023-03-16T20:01:34.967Z,1.00
2023-03-16T20:04:07.932Z,1.20
2023-03-16T20:06:36.467Z,1.25
2023-03-16T20:09:04.990Z,1.40
2023-03-16T20:11:35.391Z,1.65
2023-03-16T20:14:04.942Z,1.13
2023-03-16T20:16:35.379Z,1.00
2023-03-16T20:19:08.686Z,1.23
2023-03-16T20:21:37.249Z,1.13
2023-03-16T20:24:14.231Z,1.23
2023-03-16T20:26:44.993Z,0.68
2023-03-16T20:29:22.412Z,0.55
2023-03-16T20:32:18.427Z,0.85
2023-03-16T20:34:47.826Z,0.82
2023-03-16T20:37:25.075Z,1.02
2023-03-16T20:39:54.628Z,0.75
2023-03-16T20:42:28.504Z,0.77
2023-03-16T20:44:57.206Z,0.55
2023-03-16T20:47:28.401Z,0.80
2023-03-16T20:49:58.550Z,0.70
2023-03-16T20:52:31.684Z,0.88
2023-03-16T20:55:02.622Z,0.50
2023-03-16T20:57:34.196Z,1.20
2023-03-16T21:03:21.008Z,0.55
2023-03-16T21:05:50.284Z,0.68
2023-03-16T21:08:19.520Z,0.90
2023-03-16T21:10:50.995Z,0.80
2023-03-16T21:13:27.006Z,0.55
2023-03-16T21:15:59.845Z,1.02
2023-03-16T21:18:29.316Z,0.60
2023-03-16T21:20:58.412Z,0.90
2023-03-16T21:23:29.593Z,1.05
2023-03-16T21:28:39.425Z,0.38
2023-03-16T21:31:08.705Z,0.52
2023-03-16T21:33:38.828Z,0.95
2023-03-16T21:36:13.495Z,1.30
2023-03-16T21:38:42.165Z,0.90
2023-03-16T21:41:11.529Z,1.30
2023-03-16T21:43:42.035Z,1.08
2023-03-16T21:46:18.564Z,1.02
2023-03-16T21:48:49.948Z,0.80
2023-03-16T21:51:20.538Z,0.88
2023-03-16T21:53:50.378Z,1.38
2023-03-16T21:56:21.178Z,1.25
2023-03-16T21:58:52.316Z,1.60
2023-03-16T22:01:24.988Z,1.15
2023-03-16T22:03:57.653Z,1.08
2023-03-16T22:06:29.281Z,1.35
2023-03-16T22:08:59.855Z,1.52
2023-03-16T22:11:30.502Z,0.88
2023-03-16T22:14:01.664Z,2.08
2023-03-16T22:19:02.565Z,0.93
2023-03-16T22:21:35.730Z,1.15
2023-03-16T22:24:06.040Z,0.80
2023-03-16T22:26:35.977Z,1.42
2023-03-16T22:29:20.641Z,1.42
2023-03-16T22:31:50.391Z,1.70
2023-03-16T22:34:28.925Z,1.27
2023-03-16T22:36:58.963Z,1.88
2023-03-16T22:39:28.075Z,1.30
2023-03-16T22:41:56.808Z,1.10
2023-03-16T22:44:27.711Z,1.13
2023-03-16T22:46:56.408Z,1.05
2023-03-16T22:49:28.829Z,1.05
2023-03-16T22:51:59.330Z,1.52
2023-03-16T22:54:31.166Z,1.02
2023-03-16T22:57:02.806Z,1.15
2023-03-16T22:59:33.605Z,1.13
2023-03-16T23:02:02.349Z,1.25
2023-03-16T23:04:32.820Z,1.05
2023-03-16T23:07:01.470Z,1.63
2023-03-16T23:09:30.037Z,1.92
2023-03-16T23:11:59.620Z,1.92
2023-03-16T23:14:31.085Z,2.53
2023-03-16T23:17:01.154Z,2.75
2023-03-16T23:19:33.007Z,2.72
2023-03-16T23:22:03.677Z,3.20
2023-03-16T23:24:33.440Z,2.97
2023-03-16T23:27:02.825Z,2.50
2023-03-16T23:29:31.970Z,2.60
2023-03-16T23:32:04.667Z,3.38
2023-03-16T23:34:33.348Z,3.25
2023-03-16T23:37:02.111Z,2.67
2023-03-16T23:39:30.553Z,3.08
2023-03-16T23:41:59.098Z,4.20
2023-03-16T23:44:29.834Z,3.30
2023-03-16T23:46:59.889Z,2.97
2023-03-16T23:49:33.339Z,3.20
2023-03-16T23:52:02.812Z,3.33
2023-03-16T23:54:33.489Z,3.72
2023-03-16T23:57:02.314Z,3.13
2023-03-16T23:59:30.747Z,3.33
